Dickinson, ND

6:23 PM MDT on September 20, 2014 (GMT -0600)
Dickinson Municipal | Change Station
CLOSE
Current Station
Airport
Location: Dickinson,
Elevation: 2592 ft
Nearby Weather Stations

Elev 2592 ft 46.80 °N, 102.80 °W | Updated 27 minutes ago

Partly Cloudy
Partly Cloudy
67 °F
Feels Like 67 °F
N
16
Wind Variable Wind from NW
Gusts 24 mph

Today
High -- | Low -- °F
--% Chance of Precip.
Yesterday
High -- | Low -- °F
Precip. -- in
6:35 AM 6:52 PM
Waning Crescent, 9% visible
Pressure 30.09 in
Visibility 10.0 miles
Clouds Clear
Dew Point 35 °F
Humidity 31%
Rainfall 0.00 in
Snow Depth Not available.
UV 0 out of 12
Pollen 4.50 out of 12
Air Quality Not available.
Flu Activity Not available.
METAR KDIK 202356Z AUTO 32014G21KT 10SM CLR 19/02 A3010 RMK AO2 SLP188 T01940017 10222 20194 53012

More Conditions Fewer Conditions

Pressure 30.09 in
Visibility 10.0 miles
Clouds Clear
Dew Point 35 °F
Humidity 31%
Rainfall 0.00 in
Snow Depth Not available.
UV 0 out of 12
Pollen 4.50 out of 12
Air Quality Not available.
Flu Activity Not available.
METAR KDIK 202356Z AUTO 32014G21KT 10SM CLR 19/02 A3010 RMK AO2 SLP188 T01940017 10222 20194 53012

More Conditions Fewer Conditions

10-Day Weather Forecast

Almanac

Astronomy

Sep. 20, 2014 Rise Set
Actual Time 6:35 AM MDT 6:52 PM MDT
Civil Twilight 6:04 AM MDT 7:23 PM MDT
Nautical Twilight 5:29 AM MDT 7:58 PM MDT
Astronomical Twilight 4:52 AM MDT 8:35 PM MDT
Moon 3:06 AM MDT (9/20) 5:05 PM MDT (9/20)
Length of Visible Light 13h 18m
Length of Day
12h 17m
Tomorrow will be 3m 20s shorter.
Waning Crescent, 9% of the Moon is Illuminated
Today
Waning Crescent
Sep 24
New
Oct 1
First Quarter
Oct 8
Full
Oct 15
Last Quarter

Today's Extremes

State Highs State Lows

Community

WunderPhotos

Upload Photos

1,755,000 photos uploaded!

WunderBlogs® & News

Nearby

Snow Depth

Station Depth Elevation
No new snow has been reported.

Earthquake Activity

City Distance Mag. Time & Date
No recent earthquake activity has been reported nearby.
Minimum magnitude displayed is 2.5.

Coastal Water Temperatures

Place Temperature
No Stations Reporting

Nearby Weather Stations